Time;durP1;ratioP1;P1;durP2;ratioP2;P2;SDS_P1;SDS_P2;PMS_P1;PMS_P2;Temp;Humidity;BMP_temperature;BMP_pressure;BME280_temperature;BME280_humidity;BME280_pressure;Samples;Min_cycle;Max_cycle;Signal;HPM_P1;HPM_P2
2022/06/18 00:00:25;;;;;;;3.55;1.95;;;;;;;20.48;43.30;97316.38;6186134;23;20476;-78
2022/06/18 00:02:55;;;;;;;2.25;1.63;;;;;;;20.44;43.40;97314.41;6186939;23;20029;-78
2022/06/18 00:05:23;;;;;;;3.38;1.80;;;;;;;20.41;43.68;97306.91;6187096;23;20055;-79
2022/06/18 00:07:53;;;;;;;2.55;1.40;;;;;;;20.39;43.40;97307.13;6186814;23;20413;-78
2022/06/18 00:10:23;;;;;;;1.58;1.40;;;;;;;20.38;43.28;97310.84;6185949;23;20403;-78
2022/06/18 00:15:39;;;;;;;2.05;1.92;;;;;;;20.35;42.86;97309.41;6186722;23;20452;-78
2022/06/18 00:18:11;;;;;;;2.05;1.67;;;;;;;20.34;42.78;97302.53;6186764;23;20021;-78
2022/06/18 00:20:41;;;;;;;3.22;1.27;;;;;;;20.37;42.72;97311.84;6186305;23;20096;-78
2022/06/18 00:23:14;;;;;;;2.60;1.50;;;;;;;20.39;42.88;97309.78;6186787;23;20104;-77
2022/06/18 00:25:43;;;;;;;3.22;1.65;;;;;;;20.37;43.01;97304.72;6186254;23;20017;-77
2022/06/18 00:28:13;;;;;;;3.50;1.95;;;;;;;20.37;43.04;97303.91;6186371;23;20104;-78
2022/06/18 00:30:41;;;;;;;2.53;1.70;;;;;;;20.34;43.10;97299.88;6186334;23;20020;-78
2022/06/18 00:33:10;;;;;;;1.60;1.50;;;;;;;20.33;43.21;97297.44;6186232;23;20101;-78
2022/06/18 00:35:38;;;;;;;4.10;1.80;;;;;;;20.29;43.24;97296.28;6186671;23;20059;-78
2022/06/18 00:38:08;;;;;;;3.22;1.67;;;;;;;20.25;43.33;97295.13;6187086;23;20025;-78
2022/06/18 00:40:38;;;;;;;4.63;1.90;;;;;;;20.20;43.58;97295.00;6186239;23;20021;-78
2022/06/18 00:43:11;;;;;;;2.03;1.83;;;;;;;20.14;43.52;97300.16;6186503;23;20040;-77
2022/06/18 00:45:39;;;;;;;1.50;1.40;;;;;;;20.11;43.60;97297.94;6186289;23;20048;-78
2022/06/18 00:48:14;;;;;;;1.75;1.38;;;;;;;20.07;43.60;97299.47;6186496;23;20099;-78
2022/06/18 00:50:47;;;;;;;1.50;1.40;;;;;;;20.03;43.73;97298.28;6185709;23;20105;-78
2022/06/18 00:53:17;;;;;;;4.32;2.08;;;;;;;20.01;43.60;97299.56;6186878;23;20025;-78
2022/06/18 00:55:51;;;;;;;3.40;1.83;;;;;;;19.98;43.59;97292.84;6186210;23;20112;-78
2022/06/18 00:58:24;;;;;;;2.58;1.63;;;;;;;19.95;43.62;97290.66;6185880;23;20021;-78
2022/06/18 01:00:52;;;;;;;1.98;1.83;;;;;;;19.93;43.90;97282.13;6186234;23;20028;-77
2022/06/18 01:03:27;;;;;;;2.22;1.98;;;;;;;19.91;43.97;97285.00;6186117;23;20021;-77
2022/06/18 01:05:58;;;;;;;2.35;2.00;;;;;;;19.87;43.97;97281.16;6185641;23;20021;-78
2022/06/18 01:08:29;;;;;;;3.60;1.50;;;;;;;19.84;44.15;97278.19;6185665;23;20017;-77
2022/06/18 01:10:59;;;;;;;1.50;1.40;;;;;;;19.83;44.25;97284.50;6185512;23;20453;-77
2022/06/18 01:13:31;;;;;;;4.13;2.10;;;;;;;19.83;44.35;97282.69;6185411;23;20024;-77
2022/06/18 01:15:59;;;;;;;1.98;1.83;;;;;;;19.83;44.08;97276.56;6186026;23;20025;-78
2022/06/18 01:18:29;;;;;;;3.28;1.67;;;;;;;19.80;44.16;97277.81;6185486;23;20091;-78
2022/06/18 01:21:02;;;;;;;1.60;1.50;;;;;;;19.79;44.14;97275.38;6203349;23;20040;-78
2022/06/18 01:23:37;;;;;;;1.75;1.65;;;;;;;19.79;44.24;97280.66;6207488;23;20021;-78
2022/06/18 01:26:07;;;;;;;2.25;1.55;;;;;;;19.79;44.10;97276.22;6196451;23;20025;-78
2022/06/18 01:28:35;;;;;;;2.80;1.70;;;;;;;19.76;44.10;97268.69;6186577;23;20096;-77
2022/06/18 01:31:03;;;;;;;1.67;1.58;;;;;;;19.75;44.13;97275.84;6186568;23;20024;-77
2022/06/18 01:33:33;;;;;;;1.92;1.75;;;;;;;19.72;44.05;97265.72;6186967;23;20028;-78
2022/06/18 01:36:04;;;;;;;1.55;1.45;;;;;;;19.70;44.04;97261.66;6186169;23;20104;-77
2022/06/18 01:38:34;;;;;;;2.47;1.50;;;;;;;19.65;44.05;97270.22;6186077;23;20019;-77
2022/06/18 01:43:51;;;;;;;2.30;1.70;;;;;;;19.59;44.15;97260.56;6183901;23;20028;-77
2022/06/18 01:46:19;;;;;;;1.63;1.52;;;;;;;19.56;44.24;97253.03;6185980;23;20025;-78
2022/06/18 01:48:49;;;;;;;2.20;1.48;;;;;;;19.52;44.45;97252.66;6185274;23;20096;-77
2022/06/18 01:51:21;;;;;;;1.88;1.77;;;;;;;19.49;44.46;97255.78;6185322;23;20029;-77
2022/06/18 01:53:54;;;;;;;2.45;1.23;;;;;;;19.50;44.47;97246.00;6185034;23;20025;-78
2022/06/18 01:56:30;;;;;;;1.90;1.80;;;;;;;19.51;44.53;97243.13;6185840;23;20017;-77
2022/06/18 01:59:02;;;;;;;2.50;1.63;;;;;;;19.55;44.60;97238.22;6185029;23;20048;-78
2022/06/18 02:01:31;;;;;;;;;;;;;;;19.58;44.36;97236.94;6185736;23;20095;-78
2022/06/18 02:04:02;;;;;;;4.88;1.80;;;;;;;19.53;44.84;97224.41;6185264;23;19999;-78
2022/06/18 02:06:32;;;;;;;2.40;1.80;;;;;;;19.52;44.87;97222.75;6185298;23;20357;-77
2022/06/18 02:09:02;;;;;;;2.33;1.40;;;;;;;19.49;44.80;97223.22;6185131;23;20021;-77
2022/06/18 02:11:31;;;;;;;1.50;1.40;;;;;;;19.46;44.75;97221.00;6185260;23;20055;-78
2022/06/18 02:14:03;;;;;;;3.03;1.33;;;;;;;19.43;44.97;97213.53;6185188;23;20404;-78
2022/06/18 02:16:35;;;;;;;3.20;1.95;;;;;;;19.39;44.97;97205.22;6184974;23;20361;-77
2022/06/18 02:19:04;;;;;;;;;;;;;;;19.37;44.86;97201.19;6185526;23;20025;-77
2022/06/18 02:21:35;;;;;;;3.30;1.73;;;;;;;19.32;45.19;97202.66;6185153;23;19991;-78
2022/06/18 02:24:03;;;;;;;4.57;1.80;;;;;;;19.32;45.33;97196.56;6185338;23;20027;-77
2022/06/18 02:26:32;;;;;;;3.20;1.95;;;;;;;19.31;45.19;97206.34;6185069;23;20021;-77
2022/06/18 02:29:00;;;;;;;2.72;1.80;;;;;;;19.33;45.20;97204.28;6185053;23;20099;-77
2022/06/18 02:31:31;;;;;;;2.45;1.50;;;;;;;19.34;45.17;97205.09;6184630;23;20083;-77
2022/06/18 02:34:03;;;;;;;1.88;1.50;;;;;;;19.34;45.01;97197.16;6185254;23;20095;-77
2022/06/18 02:36:33;;;;;;;2.03;1.70;;;;;;;19.33;44.89;97199.00;6184909;23;20064;-77
2022/06/18 02:39:14;;;;;;;1.58;1.20;;;;;;;19.33;44.72;97191.06;6185109;23;20055;-77
2022/06/18 02:41:43;;;;;;;4.00;1.77;;;;;;;19.30;44.81;97196.78;6184809;23;20396;-77
2022/06/18 02:44:12;;;;;;;2.22;1.50;;;;;;;19.30;44.84;97188.84;6184689;23;20088;-77
2022/06/18 02:46:40;;;;;;;1.75;1.65;;;;;;;19.29;44.62;97187.25;6185518;23;20017;-77
2022/06/18 02:49:12;;;;;;;1.40;1.30;;;;;;;19.31;44.55;97190.47;6184548;23;20027;-77
2022/06/18 02:51:41;;;;;;;2.75;1.65;;;;;;;19.34;44.52;97195.31;6185027;23;20052;-77
2022/06/18 02:54:10;;;;;;;1.67;1.50;;;;;;;19.38;44.35;97194.88;6185096;23;20021;-79
2022/06/18 02:56:38;;;;;;;2.83;1.70;;;;;;;19.38;44.28;97192.22;6184509;23;20100;-77
2022/06/18 02:59:07;;;;;;;1.80;1.40;;;;;;;19.36;44.35;97197.75;6184871;23;20048;-77
2022/06/18 03:01:35;;;;;;;2.65;1.80;;;;;;;19.35;44.32;97196.94;6184350;23;20031;-78
2022/06/18 03:04:03;;;;;;;5.25;1.60;;;;;;;19.31;44.58;97192.31;6185234;23;20104;-77
2022/06/18 03:06:33;;;;;;;2.00;1.50;;;;;;;19.27;44.55;97197.25;6185123;23;20024;-78
2022/06/18 03:09:02;;;;;;;2.53;1.38;;;;;;;19.23;44.49;97196.06;6184809;23;20072;-77
2022/06/18 03:14:18;;;;;;;1.50;1.40;;;;;;;19.17;44.40;97189.00;6184907;23;20056;-78
2022/06/18 03:16:46;;;;;;;1.77;1.58;;;;;;;19.16;44.69;97183.97;6184914;23;20100;-77
2022/06/18 03:19:26;;;;;;;4.47;1.95;;;;;;;19.16;44.67;97182.13;6184240;23;20417;-77
2022/06/18 03:21:58;;;;;;;4.55;1.70;;;;;;;19.15;44.83;97193.72;6184328;23;20025;-77
2022/06/18 03:24:25;;;;;;;;;;;;;;;19.16;44.51;97183.97;6185492;23;20027;-77
2022/06/18 03:26:53;;;;;;;2.08;1.70;;;;;;;19.16;44.67;97186.59;6184921;23;19955;-77
2022/06/18 03:29:22;;;;;;;4.18;1.60;;;;;;;19.16;44.63;97187.41;6184280;23;20080;-77
2022/06/18 03:31:50;;;;;;;3.50;1.67;;;;;;;19.18;44.36;97179.25;6184372;23;20025;-77
2022/06/18 03:34:18;;;;;;;1.67;1.40;;;;;;;19.19;44.75;97181.66;6184622;23;20031;-78
2022/06/18 03:36:45;;;;;;;2.65;1.67;;;;;;;19.19;44.99;97176.38;6184338;23;20024;-77
2022/06/18 03:39:13;;;;;;;2.83;1.73;;;;;;;19.19;44.88;97173.72;6184890;23;20021;-77
2022/06/18 03:41:41;;;;;;;2.20;1.58;;;;;;;19.16;44.76;97174.19;6186020;23;20029;-77
2022/06/18 03:44:08;;;;;;;2.60;1.60;;;;;;;19.18;44.68;97168.69;6200799;23;20037;-77
2022/06/18 03:46:39;;;;;;;2.95;1.50;;;;;;;19.23;44.90;97176.75;6206391;23;20475;-77
2022/06/18 03:49:08;;;;;;;1.60;1.50;;;;;;;19.28;44.87;97175.03;6200240;23;20018;-77
2022/06/18 03:51:35;;;;;;;2.35;1.50;;;;;;;19.31;44.47;97165.88;6186476;23;20404;-77
2022/06/18 03:54:03;;;;;;;2.15;1.38;;;;;;;19.33;44.47;97161.97;6185805;23;20374;-77
2022/06/18 03:56:33;;;;;;;1.52;1.42;;;;;;;19.35;44.30;97170.47;6185250;23;20025;-77
2022/06/18 03:59:01;;;;;;;2.80;1.55;;;;;;;19.39;44.32;97170.03;6184994;23;20096;-78
2022/06/18 04:01:31;;;;;;;2.58;1.98;;;;;;;19.41;44.40;97175.91;6185508;23;20044;-77
2022/06/18 04:04:00;;;;;;;2.47;1.35;;;;;;;19.42;44.25;97174.88;6187100;23;20369;-77
2022/06/18 04:06:29;;;;;;;2.33;1.95;;;;;;;19.44;44.23;97175.44;6188974;23;20089;-76
2022/06/18 04:08:56;;;;;;;2.08;1.40;;;;;;;19.47;44.18;97175.81;6191433;23;20017;-76
2022/06/18 04:11:24;;;;;;;3.75;1.50;;;;;;;19.51;44.13;97168.25;6191203;23;20080;-76
2022/06/18 04:13:51;;;;;;;3.50;1.55;;;;;;;19.53;44.00;97166.19;6184830;23;20544;-76
2022/06/18 04:16:19;;;;;;;1.90;1.80;;;;;;;19.55;44.03;97180.00;6184801;23;20107;-76
2022/06/18 04:18:47;;;;;;;5.15;1.50;;;;;;;19.57;44.21;97183.22;6184827;23;20049;-76
2022/06/18 04:21:16;;;;;;;1.75;1.55;;;;;;;19.59;44.29;97173.22;6184432;23;20048;-76
2022/06/18 04:23:44;;;;;;;3.03;1.77;;;;;;;19.63;44.18;97181.50;6184543;23;20021;-77
2022/06/18 04:26:13;;;;;;;4.68;1.92;;;;;;;19.65;44.18;97180.25;6184597;23;20067;-76
2022/06/18 04:28:43;;;;;;;2.22;1.48;;;;;;;19.66;44.58;97176.56;6184301;23;20021;-76
2022/06/18 04:31:10;;;;;;;4.38;1.85;;;;;;;19.65;44.62;97177.59;6184083;23;20044;-76
2022/06/18 04:33:38;;;;;;;2.97;1.70;;;;;;;19.64;44.69;97177.84;6185135;23;20508;-78
2022/06/18 04:36:06;;;;;;;3.65;1.65;;;;;;;19.63;44.80;97182.31;6187036;23;20064;-76
2022/06/18 04:38:35;;;;;;;2.00;1.80;;;;;;;19.64;45.04;97189.22;6186788;23;20414;-76
2022/06/18 04:41:02;;;;;;;2.72;1.85;;;;;;;19.67;45.15;97188.75;6198043;23;20036;-76
2022/06/18 04:43:30;;;;;;;5.30;1.75;;;;;;;19.70;45.18;97184.88;6205244;23;20021;-76
2022/06/18 04:45:57;;;;;;;3.47;2.05;;;;;;;19.72;45.24;97181.00;6196952;23;20049;-76
2022/06/18 04:48:25;;;;;;;3.22;1.38;;;;;;;19.73;45.17;97193.19;6187450;23;20334;-77
2022/06/18 05:12:43;;;;;;;2.55;2.00;;;;;;;19.71;46.76;97195.25;6212062;22;20046;-82
2022/06/18 06:16:16;;;;;;;1.88;1.60;;;;;;;20.87;47.43;97178.91;6237656;22;20005;-79
2022/06/18 06:19:02;;;;;;;1.73;1.60;;;;;;;20.94;47.43;97171.63;6243631;22;20023;-80
2022/06/18 06:30:03;;;;;;;2.67;1.77;;;;;;;21.28;47.38;97163.03;6243410;23;20040;-80
2022/06/18 06:41:06;;;;;;;2.13;1.92;;;;;;;21.62;46.33;97166.59;6238861;22;20032;-79
2022/06/18 07:24:40;;;;;;;3.13;1.60;;;;;;;23.26;42.23;97162.91;6224091;22;20004;-80
2022/06/18 07:47:11;;;;;;;1.88;1.33;;;;;;;24.19;39.32;97150.22;6214465;22;20028;-80
2022/06/18 07:49:59;;;;;;;1.63;1.52;;;;;;;24.31;37.31;97147.34;6182817;23;20053;-82
2022/06/18 07:52:41;;;;;;;2.75;1.50;;;;;;;24.44;37.02;97151.44;6183236;23;20018;-79
2022/06/18 08:18:27;;;;;;;1.80;1.23;;;;;;;25.46;34.81;97130.56;6213956;23;19997;-81
2022/06/18 08:49:57;;;;;;;1.20;1.00;;;;;;;26.66;33.32;97108.91;6194105;22;20020;-79
2022/06/18 09:09:38;;;;;;;2.83;1.00;;;;;;;27.28;30.97;97109.44;6205811;22;20001;-85
2022/06/18 09:26:00;;;;;;;1.95;0.88;;;;;;;27.88;29.36;97085.19;6216787;22;20036;-80
2022/06/18 09:28:36;;;;;;;2.42;0.85;;;;;;;27.98;29.14;97079.72;6214353;23;20001;-83
2022/06/18 09:42:48;;;;;;;0.80;0.77;;;;;;;28.38;29.03;97075.03;6231216;22;20052;-83
2022/06/18 09:54:23;;;;;;;1.73;1.05;;;;;;;28.74;27.76;97071.97;6209299;22;20016;-81
2022/06/18 09:57:17;;;;;;;1.23;1.00;;;;;;;28.81;27.24;97063.56;6210594;22;20076;-83
2022/06/18 10:00:03;;;;;;;3.08;0.77;;;;;;;28.89;28.25;97066.41;6212954;23;20020;-84
2022/06/18 10:02:47;;;;;;;2.40;1.13;;;;;;;28.95;28.72;97061.75;6148043;22;1300490;-83
2022/06/18 10:08:41;;;;;;;3.10;1.10;;;;;;;29.13;29.55;97061.00;6170765;22;20029;-85
2022/06/18 10:23:23;;;;;;;1.95;1.10;;;;;;;29.54;29.14;97046.97;6208967;22;20032;-83
2022/06/18 10:28:59;;;;;;;2.92;2.22;;;;;;;29.68;28.29;97048.91;6183948;23;20028;-84
2022/06/18 10:31:52;;;;;;;9.02;5.20;;;;;;;29.74;28.62;97043.19;6183665;23;20052;-80
2022/06/18 10:34:38;;;;;;;5.00;4.05;;;;;;;29.80;28.74;97038.50;6184453;23;20061;-83
2022/06/18 10:37:19;;;;;;;3.72;2.40;;;;;;;29.86;29.08;97045.38;6184424;23;20001;-84
2022/06/18 10:43:30;;;;;;;2.10;1.90;;;;;;;29.97;29.59;97030.66;6212767;22;20270;-84
2022/06/18 10:46:03;;;;;;;4.05;2.30;;;;;;;30.02;29.43;97028.97;6214058;23;20076;-85
2022/06/18 10:48:34;;;;;;;3.88;2.10;;;;;;;30.08;30.34;97025.09;6214065;23;20060;-85
2022/06/18 10:51:04;;;;;;;2.47;1.65;;;;;;;30.12;29.02;97026.09;6213745;23;20016;-84
2022/06/18 10:53:45;;;;;;;3.28;2.20;;;;;;;30.18;29.46;97020.31;6214022;23;20001;-85
2022/06/18 10:56:18;;;;;;;2.35;2.15;;;;;;;30.24;29.22;97014.84;6214201;23;20001;-84
2022/06/18 10:58:55;;;;;;;2.85;1.80;;;;;;;30.31;29.40;97020.66;6213836;23;20005;-86
2022/06/18 11:01:31;;;;;;;4.40;1.90;;;;;;;30.37;29.11;97014.06;6213704;23;20027;-86
2022/06/18 11:04:08;;;;;;;2.38;1.67;;;;;;;30.43;29.30;97004.00;6213862;23;20031;-85
2022/06/18 11:06:54;;;;;;;1.73;1.45;;;;;;;30.49;28.79;97005.50;6208010;22;20057;-84
2022/06/18 11:09:27;;;;;;;3.10;1.38;;;;;;;30.53;28.61;96998.41;6193638;22;20025;-84
2022/06/18 11:11:58;;;;;;;1.58;1.48;;;;;;;30.57;28.66;97002.09;6213288;23;20025;-83
2022/06/18 11:14:33;;;;;;;3.15;1.80;;;;;;;30.62;28.74;97002.00;6213884;23;20009;-85
2022/06/18 11:17:04;;;;;;;2.25;1.63;;;;;;;30.65;28.95;97006.75;6213699;23;20021;-86
2022/06/18 11:19:36;;;;;;;2.65;1.33;;;;;;;30.70;29.18;96998.59;6213689;23;20005;-83
2022/06/18 11:22:12;;;;;;;2.08;1.30;;;;;;;30.76;28.69;97000.06;6213356;23;20012;-85
2022/06/18 11:24:48;;;;;;;2.60;1.67;;;;;;;30.82;28.99;96997.25;6213580;23;20053;-86
2022/06/18 11:27:20;;;;;;;3.75;1.48;;;;;;;30.86;28.35;96995.59;6215648;22;20023;-85
2022/06/18 11:29:54;;;;;;;2.10;1.02;;;;;;;30.90;28.25;96996.59;6182966;23;20010;-86
2022/06/18 11:32:30;;;;;;;2.75;1.25;;;;;;;30.95;28.23;96983.00;6183704;23;20005;-86
2022/06/18 11:35:17;;;;;;;2.33;1.60;;;;;;;30.98;28.07;96977.81;6183583;23;20005;-86
2022/06/18 11:37:57;;;;;;;5.30;4.07;;;;;;;31.05;28.29;96981.94;6158553;23;20040;-86
2022/06/18 11:40:29;;;;;;;2.75;1.60;;;;;;;31.08;27.84;96979.44;6183862;23;20069;-87
2022/06/18 11:43:03;;;;;;;2.53;1.17;;;;;;;31.12;27.86;96977.75;6184856;23;20013;-85
2022/06/18 11:45:44;;;;;;;3.38;1.50;;;;;;;31.16;27.81;96976.03;6160801;23;20007;-84
2022/06/18 11:48:25;;;;;;;4.25;1.42;;;;;;;31.21;27.16;96975.09;6185675;23;20002;-87
2022/06/18 11:51:05;;;;;;;4.13;1.33;;;;;;;31.25;27.38;96964.50;6185351;23;20041;-86
2022/06/18 12:05:25;;;;;;;3.42;1.40;;;;;;;31.38;27.68;96953.66;6211202;22;20024;-85
2022/06/18 12:07:58;;;;;;;1.90;1.35;;;;;;;31.43;27.03;96949.28;6190231;23;20032;-86
2022/06/18 12:10:40;;;;;;;2.33;1.30;;;;;;;31.42;26.39;96953.84;6215078;23;20065;-85
2022/06/18 12:13:23;;;;;;;3.22;1.33;;;;;;;31.40;26.49;96946.06;6190229;23;20005;-84
2022/06/18 12:15:59;;;;;;;3.05;1.40;;;;;;;31.42;26.64;96943.06;6208205;22;20079;-79
2022/06/18 12:18:37;;;;;;;1.52;1.42;;;;;;;31.47;26.85;96939.47;6195166;23;20021;-78
2022/06/18 12:21:16;;;;;;;4.05;1.48;;;;;;;31.52;27.36;96932.03;6194076;23;20028;-78
2022/06/18 12:23:53;;;;;;;2.70;1.30;;;;;;;31.57;27.13;96929.19;6193546;23;20033;-79
2022/06/18 12:26:23;;;;;;;6.65;1.80;;;;;;;31.63;26.56;96926.38;6193178;23;20069;-79
2022/06/18 12:29:14;;;;;;;4.35;1.65;;;;;;;31.65;26.37;96922.25;6193947;23;20072;-79
2022/06/18 12:31:48;;;;;;;2.72;1.80;;;;;;;31.68;26.12;96924.34;6199383;23;20024;-79
2022/06/18 12:34:25;;;;;;;7.28;1.80;;;;;;;31.70;26.15;96913.25;6201285;23;20025;-79
2022/06/18 12:37:03;;;;;;;7.72;1.52;;;;;;;31.73;26.58;96904.53;6199398;23;20032;-79
2022/06/18 12:39:37;;;;;;;9.13;2.20;;;;;;;31.75;25.63;96913.09;6194468;23;20056;-79
2022/06/18 12:42:13;;;;;;;7.63;2.08;;;;;;;31.72;25.43;96903.72;6192936;23;20039;-78
2022/06/18 12:44:48;;;;;;;7.45;1.90;;;;;;;31.73;25.50;96909.94;6193644;23;20025;-79
2022/06/18 12:47:23;;;;;;;12.68;2.85;;;;;;;31.77;25.51;96900.09;6192585;23;20096;-78
2022/06/18 12:50:03;;;;;;;6.78;2.35;;;;;;;31.78;25.81;96896.31;6193687;23;20056;-78
2022/06/18 12:52:37;;;;;;;5.88;2.00;;;;;;;31.80;25.58;96886.00;6192600;23;20460;-79
2022/06/18 12:55:16;;;;;;;13.65;2.40;;;;;;;31.82;25.65;96892.66;6192045;23;20029;-78
2022/06/18 12:57:55;;;;;;;5.93;2.30;;;;;;;31.83;25.27;96888.06;6192660;23;20032;-79
2022/06/18 13:00:33;;;;;;;8.05;2.25;;;;;;;31.85;24.95;96885.06;6191233;23;20044;-79
2022/06/18 13:03:27;;;;;;;6.38;2.38;;;;;;;31.88;25.03;96882.53;6191894;23;20025;-79
2022/06/18 13:06:03;;;;;;;11.02;2.25;;;;;;;31.89;24.63;96886.81;6192308;23;20412;-78
2022/06/18 13:08:48;;;;;;;11.30;2.50;;;;;;;31.89;24.23;96876.03;6191848;23;20052;-80
2022/06/18 13:11:26;;;;;;;10.65;2.25;;;;;;;31.88;24.32;96881.72;6191515;23;20021;-79
2022/06/18 13:14:13;;;;;;;12.45;2.80;;;;;;;31.85;24.45;96871.56;6192015;23;20056;-78
2022/06/18 13:16:47;;;;;;;10.03;2.43;;;;;;;31.84;24.24;96870.78;6191027;23;20025;-79
2022/06/18 13:19:20;;;;;;;11.90;2.17;;;;;;;31.85;24.08;96866.19;6191950;23;20025;-79
2022/06/18 13:21:48;;;;;;;11.15;2.83;;;;;;;31.86;24.45;96863.19;6192065;23;20049;-79
2022/06/18 13:30:02;;;;;;;8.43;2.40;;;;;;;31.89;25.01;96856.34;6191152;23;20032;-80
2022/06/18 13:32:35;;;;;;;6.05;1.80;;;;;;;31.90;24.88;96839.84;6191001;23;20044;-79
2022/06/18 13:35:11;;;;;;;9.57;2.35;;;;;;;31.91;25.42;96838.75;6191460;23;20032;-80
2022/06/18 13:37:47;;;;;;;8.20;2.63;;;;;;;31.92;25.10;96842.22;6190947;23;20501;-79
2022/06/18 13:40:24;;;;;;;7.90;2.03;;;;;;;31.89;25.12;96835.56;6190506;23;20025;-80
2022/06/18 13:43:00;;;;;;;11.60;2.72;;;;;;;31.90;25.01;96826.34;6190780;23;20092;-79
2022/06/18 13:45:35;;;;;;;7.45;3.08;;;;;;;31.92;25.16;96828.75;6190600;23;20123;-79
2022/06/18 13:48:26;;;;;;;4.93;2.00;;;;;;;31.96;25.67;96838.59;6190814;23;20032;-79
2022/06/18 13:50:55;;;;;;;12.23;3.17;;;;;;;31.98;25.20;96825.59;6190355;23;20095;-79
2022/06/18 13:53:24;;;;;;;6.00;2.22;;;;;;;31.98;25.61;96812.13;6190771;23;20021;-79
2022/06/18 13:55:53;;;;;;;7.07;2.08;;;;;;;31.98;25.29;96817.50;6190176;23;20104;-79
2022/06/18 13:58:25;;;;;;;14.55;2.53;;;;;;;31.96;24.64;96817.00;6190475;23;20025;-79
2022/06/18 14:01:04;;;;;;;17.02;3.13;;;;;;;31.96;24.50;96819.69;6191192;23;20405;-79
2022/06/18 14:03:37;;;;;;;8.30;2.55;;;;;;;31.97;24.06;96809.72;6190686;23;20021;-79
2022/06/18 14:06:08;;;;;;;11.73;2.97;;;;;;;31.96;24.18;96806.22;6191748;23;20025;-79
2022/06/18 14:08:47;;;;;;;12.85;2.65;;;;;;;31.97;24.31;96807.03;6191666;23;20057;-78
2022/06/18 14:11:30;;;;;;;11.18;2.88;;;;;;;31.97;24.26;96802.44;6190772;23;20096;-80
2022/06/18 14:13:57;;;;;;;12.82;3.22;;;;;;;32.00;24.04;96806.41;6190432;23;20564;-79
2022/06/18 14:16:30;;;;;;;6.38;2.55;;;;;;;32.00;23.67;96806.41;6190190;23;20100;-78
2022/06/18 14:19:09;;;;;;;16.05;3.50;;;;;;;31.99;23.59;96805.63;6190801;23;20024;-79
2022/06/18 14:21:37;;;;;;;11.25;3.13;;;;;;;31.98;23.29;96795.94;6193903;23;20052;-79
2022/06/18 14:24:06;;;;;;;12.52;2.60;;;;;;;31.98;23.44;96795.13;6191877;23;20025;-80
2022/06/18 14:26:43;;;;;;;13.80;3.03;;;;;;;31.97;22.84;96785.44;6190447;23;20306;-79
2022/06/18 14:29:11;;;;;;;19.83;3.10;;;;;;;31.96;23.12;96773.03;6207881;23;20021;-78
2022/06/18 14:31:51;;;;;;;14.55;2.85;;;;;;;31.95;22.93;96777.66;6208780;23;20029;-78
2022/06/18 14:34:28;;;;;;;13.35;2.90;;;;;;;31.96;23.44;96776.53;6198283;23;20120;-79
2022/06/18 14:37:03;;;;;;;12.25;2.45;;;;;;;31.96;23.39;96763.03;6193297;23;20025;-79
2022/06/18 14:39:33;;;;;;;16.13;2.55;;;;;;;31.96;23.30;96768.44;6192026;23;20021;-79
2022/06/18 14:42:11;;;;;;;13.20;2.35;;;;;;;31.94;23.39;96770.66;6191590;23;20079;-79
2022/06/18 14:44:54;;;;;;;10.23;2.53;;;;;;;31.93;23.13;96761.00;6192294;23;20101;-79
2022/06/18 14:47:53;;;;;;;13.35;2.90;;;;;;;31.96;22.90;96762.25;6191605;23;20059;-79
2022/06/18 14:50:47;;;;;;;12.80;3.20;;;;;;;31.95;23.20;96750.69;6187450;23;20522;-79
2022/06/18 14:53:31;;;;;;;14.48;2.60;;;;;;;31.94;23.10;96759.09;6191416;23;20025;-79
2022/06/18 14:56:11;;;;;;;10.65;2.40;;;;;;;31.93;23.28;96747.50;6191084;23;20025;-79
2022/06/18 14:59:03;;;;;;;16.45;3.70;;;;;;;31.92;23.17;96754.00;6191170;23;20061;-78
2022/06/18 15:01:40;;;;;;;15.82;2.92;;;;;;;31.91;23.36;96738.94;6190233;23;20061;-79
2022/06/18 15:04:16;;;;;;;11.90;2.60;;;;;;;31.89;23.56;96741.16;6190602;23;20353;-79
2022/06/18 15:06:44;;;;;;;14.20;3.03;;;;;;;31.89;23.44;96732.28;6190744;23;20096;-80
2022/06/18 15:09:14;;;;;;;12.05;3.00;;;;;;;31.88;23.16;96734.19;6190982;23;20091;-79
2022/06/18 15:11:47;;;;;;;15.75;2.78;;;;;;;31.87;23.48;96723.69;6189779;23;20020;-79
2022/06/18 15:14:22;;;;;;;10.18;3.10;;;;;;;31.86;23.75;96720.22;6190155;23;20092;-79
2022/06/18 15:17:09;;;;;;;20.33;3.13;;;;;;;31.87;23.90;96719.09;6189876;23;20087;-79
2022/06/18 15:19:41;;;;;;;14.05;2.90;;;;;;;31.87;23.53;96716.41;6191041;23;20049;-79
2022/06/18 15:22:29;;;;;;;7.97;2.53;;;;;;;31.89;23.74;96713.38;6190654;23;20025;-79
2022/06/18 15:27:46;;;;;;;13.02;3.03;;;;;;;31.90;24.28;96720.34;6189040;23;20055;-77
2022/06/18 15:30:32;;;;;;;13.75;3.03;;;;;;;31.89;23.99;96718.78;6184599;23;20049;-78
2022/06/18 15:33:02;;;;;;;14.18;3.40;;;;;;;31.85;23.81;96707.81;6185229;23;20028;-76
2022/06/18 15:35:32;;;;;;;23.77;3.25;;;;;;;31.82;24.41;96709.25;6185060;23;20388;-80
2022/06/18 15:38:03;;;;;;;14.18;2.85;;;;;;;31.80;23.43;96711.47;6189965;23;20029;-79
2022/06/18 15:40:34;;;;;;;13.43;3.03;;;;;;;31.81;23.97;96702.28;6189741;23;20048;-79
2022/06/18 15:43:06;;;;;;;14.00;3.28;;;;;;;31.82;24.03;96703.06;6189868;23;20021;-79
2022/06/18 15:45:39;;;;;;;;;;;;;;;31.84;24.16;96698.16;6190663;23;20055;-80
2022/06/18 15:48:10;;;;;;;12.60;2.80;;;;;;;31.82;23.58;96692.28;6188985;23;19917;-79
2022/06/18 15:50:43;;;;;;;11.23;2.80;;;;;;;31.82;23.72;96697.69;6189007;23;20021;-79
2022/06/18 15:53:19;;;;;;;14.77;3.40;;;;;;;31.81;24.42;96693.38;6188878;23;20052;-80
2022/06/18 15:55:48;;;;;;;11.07;2.92;;;;;;;31.82;24.01;96692.28;6188804;23;20077;-79
2022/06/18 15:58:16;;;;;;;13.88;3.40;;;;;;;31.82;24.34;96686.88;6188611;23;20525;-79
2022/06/18 16:00:45;;;;;;;10.35;2.92;;;;;;;31.80;23.91;96689.09;6189135;23;20025;-80
2022/06/18 16:03:18;;;;;;;12.40;3.05;;;;;;;31.75;23.90;96681.97;6190008;23;20048;-79
2022/06/18 16:05:47;;;;;;;12.20;2.75;;;;;;;31.72;24.02;96671.00;6191291;23;20044;-78
2022/06/18 16:08:32;;;;;;;14.27;2.42;;;;;;;31.70;23.91;96674.00;6190749;23;20021;-80
2022/06/18 16:11:17;;;;;;;12.38;2.80;;;;;;;31.70;24.36;96674.00;6191347;23;20052;-79
2022/06/18 16:13:45;;;;;;;15.55;3.17;;;;;;;31.70;24.49;96670.53;6192363;23;20022;-79
2022/06/18 16:16:27;;;;;;;15.90;2.80;;;;;;;31.67;24.64;96671.19;6190984;23;20044;-80
2022/06/18 16:19:01;;;;;;;16.70;3.40;;;;;;;31.66;25.46;96670.38;6196468;23;20357;-79
2022/06/18 16:21:29;;;;;;;15.88;3.08;;;;;;;31.66;25.19;96661.50;6196518;23;20080;-79
2022/06/18 16:23:58;;;;;;;11.82;2.72;;;;;;;31.65;25.28;96666.09;6194899;23;20047;-79
2022/06/18 16:26:28;;;;;;;12.48;3.10;;;;;;;31.62;25.08;96664.03;6191238;23;20021;-79
2022/06/18 16:28:57;;;;;;;19.85;2.95;;;;;;;31.62;24.46;96666.75;6191943;23;20096;-79
2022/06/18 16:31:38;;;;;;;17.70;3.58;;;;;;;31.60;24.54;96664.34;6196367;23;20064;-80
2022/06/18 16:34:06;;;;;;;15.65;3.08;;;;;;;31.58;24.58;96658.47;6193043;23;20017;-79
2022/06/18 16:36:34;;;;;;;15.70;3.92;;;;;;;31.57;24.53;96648.78;6193706;23;20099;-79
2022/06/18 16:39:09;;;;;;;13.50;3.35;;;;;;;31.57;24.30;96650.69;6193379;23;20079;-79
2022/06/18 16:41:43;;;;;;;15.63;3.42;;;;;;;31.56;24.61;96647.22;6193673;23;20206;-79
2022/06/18 16:44:20;;;;;;;15.70;3.60;;;;;;;31.56;24.60;96652.59;6193380;23;20408;-79
2022/06/18 16:46:51;;;;;;;13.30;3.00;;;;;;;31.56;24.75;96657.22;6188891;23;20044;-78
2022/06/18 16:49:22;;;;;;;15.00;3.65;;;;;;;31.56;24.62;96657.22;6187246;23;20487;-78
2022/06/18 16:51:52;;;;;;;14.77;4.07;;;;;;;31.55;24.77;96656.44;6186672;23;20066;-78
2022/06/18 16:54:30;;;;;;;10.55;3.95;;;;;;;31.53;24.60;96658.66;6190081;23;20032;-78
2022/06/18 16:56:58;;;;;;;14.45;3.35;;;;;;;31.52;24.94;96645.47;6191755;23;20100;-78
2022/06/18 16:59:27;;;;;;;27.25;11.88;;;;;;;31.52;25.15;96648.94;6190861;23;20405;-77
2022/06/18 17:01:57;;;;;;;11.63;3.15;;;;;;;31.51;24.89;96639.28;6187933;23;20045;-78
2022/06/18 17:04:27;;;;;;;12.35;3.22;;;;;;;31.49;25.11;96640.72;6187315;23;20405;-78
2022/06/18 17:06:57;;;;;;;18.92;2.95;;;;;;;31.48;24.79;96642.59;6186655;23;20079;-77
2022/06/18 17:09:26;;;;;;;10.45;2.95;;;;;;;31.48;25.07;96641.81;6186753;23;20468;-77
2022/06/18 17:11:55;;;;;;;12.45;2.10;;;;;;;31.49;24.81;96643.41;6186080;23;20025;-78
2022/06/18 17:14:24;;;;;;;12.65;3.33;;;;;;;31.49;25.22;96638.03;6187095;23;20044;-78